www.hobby-wetter-faasend.de
Wetterdaten: aktuell Samstag, 22.07.2017 12:00
Datum Zeit Temp. A. Temp. A. min Temp. A. max Feuchte A. Luftdruck Regen Wind Richtung Richtung Sonnenschein Taupunkt Windchill Windben
22.07.2017 12:00 23,2 C 22,7 C 23,2 C 74 % 1012,9 hPa 0,0 l/m 3,2 km/h (1 Bft) S 180 0 min 18,3 C 23,2 C 14,5 km/h (3 Bft)
22.07.2017 11:30 22,8 C 22,3 C 22,9 C 75 % 1012,8 hPa 0,0 l/m 1,6 km/h (1 Bft) S 180 0 min 18,1 C 22,8 C 11,3 km/h (2 Bft)
22.07.2017 11:00 22,8 C 21,9 C 22,8 C 81 % 1012,8 hPa 0,0 l/m 1,6 km/h (1 Bft) W 270 0 min 19,4 C 22,8 C 9,7 km/h (2 Bft)
22.07.2017 10:30 22,1 C 21,5 C 22,4 C 79 % 1012,7 hPa 0,0 l/m 1,6 km/h (1 Bft) S 180 0 min 18,3 C 22,1 C 8,0 km/h (2 Bft)
22.07.2017 10:00 21,5 C 21,2 C 21,7 C 82 % 1012,6 hPa 0,0 l/m 0,0 km/h (0 Bft) S 180 0 min 18,3 C 21,5 C 6,4 km/h (2 Bft)
22.07.2017 09:30 21,3 C 20,6 C 21,3 C 86 % 1012,5 hPa 0,0 l/m 1,6 km/h (1 Bft) S 180 0 min 18,9 C 21,3 C 11,3 km/h (2 Bft)
22.07.2017 09:00 20,6 C 19,4 C 20,6 C 87 % 1012,5 hPa 0,0 l/m 1,6 km/h (1 Bft) S 180 0 min 18,4 C 20,6 C 8,0 km/h (2 Bft)
22.07.2017 08:30 19,4 C 18,6 C 19,4 C 94 % 1012,2 hPa 0,0 l/m 0,0 km/h (0 Bft) SO 135 0 min 18,4 C 19,4 C 1,6 km/h (1 Bft)
22.07.2017 08:00 18,6 C 17,6 C 18,6 C 95 % 1012,1 hPa 0,0 l/m 0,0 km/h (0 Bft) SO 135 0 min 17,8 C 18,6 C 3,2 km/h (1 Bft)
22.07.2017 07:30 17,6 C 16,9 C 17,6 C 95 % 1011,8 hPa 0,0 l/m 0,0 km/h (0 Bft) SO 135 0 min 16,8 C 17,6 C 1,6 km/h (1 Bft)
22.07.2017 07:00 16,9 C 16,6 C 16,9 C 95 % 1011,6 hPa 0,0 l/m 0,0 km/h (0 Bft) SO 135 0 min 16,1 C 16,9 C 1,6 km/h (1 Bft)
22.07.2017 06:30 16,7 C 16,7 C 17,0 C 94 % 1011,6 hPa 0,0 l/m 0,0 km/h (0 Bft) N 0 0 min 15,7 C 16,7 C 0,0 km/h (0 Bft)
22.07.2017 06:06 16,9 C 16,9 C 16,9 C 94 % 1011,5 hPa 0,0 l/m 0,0 km/h (0 Bft) SO 135 0 min 15,9 C 16,9 C 0,0 km/h (0 Bft)
22.07.2017 06:05 16,9 C 16,9 C 16,9 C 94 % 1011,5 hPa 0,0 l/m 0,0 km/h (0 Bft) SO 135 0 min 15,9 C 16,9 C 0,0 km/h (0 Bft)
22.07.2017 06:04 16,9 C 16,9 C 16,9 C 94 % 1011,4 hPa 0,0 l/m 0,0 km/h (0 Bft) SO 135 0 min 15,9 C 16,9 C 0,0 km/h (0 Bft)
22.07.2017 06:03 16,9 C 16,9 C 16,9 C 94 % 1011,4 hPa 0,0 l/m 0,0 km/h (0 Bft) SO 135 0 min 15,9 C 16,9 C 0,0 km/h (0 Bft)
22.07.2017 06:02 16,9 C 16,9 C 17,0 C 94 % 1011,4 hPa 0,0 l/m 0,0 km/h (0 Bft) SO 135 0 min 15,9 C 16,9 C 0,0 km/h (0 Bft)
22.07.2017 06:01 17,0 C 17,0 C 17,0 C 94 % 1011,4 hPa 0,0 l/m 0,0 km/h (0 Bft) SO 135 0 min 16,0 C 17,0 C 0,0 km/h (0 Bft)
22.07.2017 06:00 17,0 C 17,0 C 17,0 C 94 % 1011,3 hPa 0,0 l/m 0,0 km/h (0 Bft) SO 135 0 min 16,0 C 17,0 C 0,0 km/h (0 Bft)
22.07.2017 05:59 17,0 C 17,0 C 17,0 C 94 % 1011,4 hPa 0,0 l/m 0,0 km/h (0 Bft) SO 135 0 min 16,0 C 17,0 C 0,0 km/h (0 Bft)
22.07.2017 05:58 17,0 C 17,0 C 17,0 C 94 % 1011,4 hPa 0,0 l/m 0,0 km/h (0 Bft) SO 135 0 min 16,0 C 17,0 C 0,0 km/h (0 Bft)
22.07.2017 05:57 17,0 C 17,0 C 17,1 C 94 % 1011,3 hPa 0,0 l/m 0,1 km/h (0 Bft) SO 135 0 min 16,0 C 17,0 C 1,6 km/h (1 Bft)
22.07.2017 05:56 17,1 C 17,0 C 17,1 C 94 % 1011,3 hPa 0,0 l/m 0,1 km/h (0 Bft) SO 135 0 min 16,1 C 17,1 C 1,6 km/h (1 Bft)
22.07.2017 05:55 17,1 C 17,0 C 17,1 C 94 % 1011,3 hPa 0,0 l/m 0,0 km/h (0 Bft) SO 135 0 min 16,1 C 17,1 C 0,0 km/h (0 Bft)
22.07.2017 05:54 17,1 C 17,1 C 17,1 C 94 % 1011,2 hPa 0,0 l/m 0,0 km/h (0 Bft) SO 135 0 min 16,1 C 17,1 C 0,0 km/h (0 Bft)
22.07.2017 05:53 17,1 C 17,1 C 17,1 C 94 % 1011,2 hPa 0,0 l/m 0,1 km/h (0 Bft) SO 135 0 min 16,1 C 17,1 C 1,6 km/h (1 Bft)
22.07.2017 05:52 17,1 C 17,1 C 17,2 C 94 % 1011,3 hPa 0,0 l/m 0,1 km/h (0 Bft) SO 135 0 min 16,1 C 17,1 C 3,2 km/h (1 Bft)
22.07.2017 05:30 17,2 C 17,2 C 17,3 C 94 % 1011,2 hPa 0,0 l/m 0,0 km/h (0 Bft) SO 135 0 min 16,2 C 17,2 C 0,0 km/h (0 Bft)
22.07.2017 05:19 17,3 C 17,3 C 17,3 C 94 % 1011,2 hPa 0,0 l/m 0,0 km/h (0 Bft) SO 135 0 min 16,3 C 17,3 C 0,0 km/h (0 Bft)
22.07.2017 05:18 17,3 C 17,3 C 17,3 C 94 % 1011,2 hPa 0,0 l/m 0,0 km/h (0 Bft) SO 135 0 min 16,3 C 17,3 C 0,0 km/h (0 Bft)
22.07.2017 05:17 17,3 C 17,3 C 17,3 C 94 % 1011,3 hPa 0,0 l/m 0,0 km/h (0 Bft) SO 135 0 min 16,3 C 17,3 C 0,0 km/h (0 Bft)
22.07.2017 05:16 17,3 C 17,3 C 17,3 C 94 % 1011,2 hPa 0,0 l/m 0,0 km/h (0 Bft) SO 135 0 min 16,3 C 17,3 C 0,0 km/h (0 Bft)
22.07.2017 05:15 17,3 C 17,3 C 17,3 C 94 % 1011,2 hPa 0,0 l/m 0,0 km/h (0 Bft) SO 135 0 min 16,3 C 17,3 C 0,0 km/h (0 Bft)
22.07.2017 05:14 17,3 C 17,3 C 17,3 C 94 % 1011,2 hPa 0,0 l/m 0,0 km/h (0 Bft) SO 135 0 min 16,3 C 17,3 C 0,0 km/h (0 Bft)
22.07.2017 05:13 17,3 C 17,3 C 17,3 C 94 % 1011,2 hPa 0,0 l/m 0,0 km/h (0 Bft) SO 135 0 min 16,3 C 17,3 C 0,0 km/h (0 Bft)
22.07.2017 05:12 17,3 C 17,3 C 17,3 C 94 % 1011,1 hPa 0,0 l/m 0,0 km/h (0 Bft) SO 135 0 min 16,3 C 17,3 C 0,0 km/h (0 Bft)
22.07.2017 05:11 17,3 C 17,3 C 17,3 C 94 % 1011,2 hPa 0,0 l/m 0,0 km/h (0 Bft) SO 135 0 min 16,3 C 17,3 C 0,0 km/h (0 Bft)
22.07.2017 05:10 17,3 C 17,3 C 17,3 C 94 % 1011,2 hPa 0,0 l/m 0,0 km/h (0 Bft) SO 135 0 min 16,3 C 17,3 C 0,0 km/h (0 Bft)
22.07.2017 05:09 17,3 C 17,3 C 17,3 C 94 % 1011,1 hPa 0,0 l/m 0,0 km/h (0 Bft) SO 135 0 min 16,3 C 17,3 C 0,0 km/h (0 Bft)
22.07.2017 05:08 17,3 C 17,3 C 17,3 C 94 % 1011,1 hPa 0,0 l/m 0,0 km/h (0 Bft) SO 135 0 min 16,3 C 17,3 C 0,0 km/h (0 Bft)
22.07.2017 05:07 17,3 C 17,3 C 17,3 C 94 % 1011,1 hPa 0,0 l/m 0,0 km/h (0 Bft) SO 135 0 min 16,3 C 17,3 C 0,0 km/h (0 Bft)
22.07.2017 05:06 17,3 C 17,3 C 17,3 C 94 % 1011,1 hPa 0,0 l/m 0,0 km/h (0 Bft) SO 135 0 min 16,3 C 17,3 C 0,0 km/h (0 Bft)
22.07.2017 05:05 17,3 C 17,3 C 17,4 C 94 % 1011,1 hPa 0,0 l/m 0,0 km/h (0 Bft) SO 135 0 min 16,3 C 17,3 C 1,6 km/h (1 Bft)
22.07.2017 04:45 17,4 C 17,4 C 17,4 C 94 % 1011,0 hPa 0,0 l/m 0,0 km/h (0 Bft) SO 135 0 min 16,4 C 17,4 C 1,6 km/h (1 Bft)
22.07.2017 04:32 17,4 C 17,4 C 17,4 C 94 % 1011,0 hPa 0,0 l/m 0,0 km/h (0 Bft) SO 135 0 min 16,4 C 17,4 C 0,0 km/h (0 Bft)
22.07.2017 04:31 17,4 C 17,4 C 17,4 C 94 % 1011,1 hPa 0,0 l/m 0,0 km/h (0 Bft) SO 135 0 min 16,4 C 17,4 C 0,0 km/h (0 Bft)
22.07.2017 04:30 17,4 C 17,4 C 17,4 C 94 % 1011,0 hPa 0,0 l/m 0,0 km/h (0 Bft) SO 135 0 min 16,4 C 17,4 C 0,0 km/h (0 Bft)
22.07.2017 04:29 17,4 C 17,4 C 17,4 C 94 % 1011,0 hPa 0,0 l/m 0,0 km/h (0 Bft) SO 135 0 min 16,4 C 17,4 C 0,0 km/h (0 Bft)
22.07.2017 04:28 17,4 C 17,4 C 17,4 C 94 % 1011,1 hPa 0,0 l/m 0,0 km/h (0 Bft) SO 135 0 min 16,4 C 17,4 C 0,0 km/h (0 Bft)
22.07.2017 04:27 17,4 C 17,4 C 17,4 C 94 % 1011,1 hPa 0,0 l/m 0,0 km/h (0 Bft) SO 135 0 min 16,4 C 17,4 C 0,0 km/h (0 Bft)
22.07.2017 04:26 17,4 C 17,4 C 17,4 C 94 % 1011,1 hPa 0,0 l/m 0,0 km/h (0 Bft) SO 135 0 min 16,4 C 17,4 C 0,0 km/h (0 Bft)
22.07.2017 04:25 17,4 C 17,4 C 17,4 C 94 % 1011,1 hPa 0,0 l/m 0,0 km/h (0 Bft) SO 135 0 min 16,4 C 17,4 C 0,0 km/h (0 Bft)
22.07.2017 04:24 17,4 C 17,4 C 17,4 C 94 % 1011,2 hPa 0,0 l/m 0,0 km/h (0 Bft) SO 135 0 min 16,4 C 17,4 C 0,0 km/h (0 Bft)
22.07.2017 04:23 17,4 C 17,4 C 17,4 C 94 % 1011,2 hPa 0,0 l/m 0,0 km/h (0 Bft) SO 135 0 min 16,4 C 17,4 C 0,0 km/h (0 Bft)
22.07.2017 04:22 17,4 C 17,4 C 17,4 C 94 % 1011,2 hPa 0,0 l/m 0,0 km/h (0 Bft) SO 135 0 min 16,4 C 17,4 C 0,0 km/h (0 Bft)
22.07.2017 04:21 17,4 C 17,4 C 17,5 C 94 % 1011,2 hPa 0,0 l/m 0,0 km/h (0 Bft) SO 135 0 min 16,4 C 17,4 C 0,0 km/h (0 Bft)
22.07.2017 04:20 17,4 C 17,4 C 17,5 C 94 % 1011,2 hPa 0,0 l/m 0,0 km/h (0 Bft) SO 135 0 min 16,4 C 17,4 C 0,0 km/h (0 Bft)
22.07.2017 04:19 17,5 C 17,5 C 17,5 C 94 % 1011,1 hPa 0,0 l/m 0,0 km/h (0 Bft) SO 135 0 min 16,5 C 17,5 C 0,0 km/h (0 Bft)
22.07.2017 04:18 17,5 C 17,5 C 17,6 C 94 % 1011,1 hPa 0,0 l/m 0,0 km/h (0 Bft) SO 135 0 min 16,5 C 17,5 C 3,2 km/h (1 Bft)
22.07.2017 04:00 17,6 C 17,6 C 17,6 C 94 % 1011,1 hPa 0,0 l/m 0,0 km/h (0 Bft) SO 135 0 min 16,6 C 17,6 C 1,6 km/h (1 Bft)
22.07.2017 03:41 17,6 C 17,6 C 17,6 C 94 % 1011,1 hPa 0,0 l/m 0,0 km/h (0 Bft) SO 135 0 min 16,6 C 17,6 C 0,0 km/h (0 Bft)
22.07.2017 03:40 17,6 C 17,6 C 17,6 C 94 % 1011,1 hPa 0,0 l/m 0,0 km/h (0 Bft) SO 135 0 min 16,6 C 17,6 C 0,0 km/h (0 Bft)
22.07.2017 03:39 17,6 C 17,6 C 17,6 C 94 % 1011,1 hPa 0,0 l/m 0,0 km/h (0 Bft) SO 135 0 min 16,6 C 17,6 C 0,0 km/h (0 Bft)
22.07.2017 03:38 17,6 C 17,6 C 17,6 C 94 % 1011,1 hPa 0,0 l/m 0,0 km/h (0 Bft) SO 135 0 min 16,6 C 17,6 C 0,0 km/h (0 Bft)
22.07.2017 03:37 17,6 C 17,6 C 17,6 C 94 % 1011,1 hPa 0,0 l/m 0,0 km/h (0 Bft) SO 135 0 min 16,6 C 17,6 C 0,0 km/h (0 Bft)
22.07.2017 03:36 17,6 C 17,6 C 17,6 C 94 % 1011,1 hPa 0,0 l/m 0,0 km/h (0 Bft) SO 135 0 min 16,6 C 17,6 C 0,0 km/h (0 Bft)
22.07.2017 03:35 17,6 C 17,6 C 17,6 C 94 % 1011,1 hPa 0,0 l/m 0,0 km/h (0 Bft) SO 135 0 min 16,6 C 17,6 C 0,0 km/h (0 Bft)
22.07.2017 03:34 17,6 C 17,6 C 17,6 C 94 % 1011,1 hPa 0,0 l/m 0,0 km/h (0 Bft) SO 135 0 min 16,6 C 17,6 C 0,0 km/h (0 Bft)
22.07.2017 03:33 17,6 C 17,6 C 17,6 C 94 % 1011,1 hPa 0,0 l/m 0,0 km/h (0 Bft) SO 135 0 min 16,6 C 17,6 C 0,0 km/h (0 Bft)
22.07.2017 03:32 17,6 C 17,6 C 17,6 C 93 % 1011,0 hPa 0,0 l/m 0,0 km/h (0 Bft) SO 135 0 min 16,5 C 17,6 C 0,0 km/h (0 Bft)
22.07.2017 03:31 17,6 C 17,6 C 17,6 C 93 % 1011,0 hPa 0,0 l/m 0,0 km/h (0 Bft) SO 135 0 min 16,5 C 17,6 C 0,0 km/h (0 Bft)
22.07.2017 03:30 17,6 C 17,6 C 17,6 C 93 % 1011,1 hPa 0,0 l/m 0,0 km/h (0 Bft) SO 135 0 min 16,5 C 17,6 C 0,0 km/h (0 Bft)
22.07.2017 03:29 17,6 C 17,6 C 17,6 C 93 % 1011,2 hPa 0,0 l/m 0,0 km/h (0 Bft) SO 135 0 min 16,5 C 17,6 C 0,0 km/h (0 Bft)
22.07.2017 03:28 17,6 C 17,6 C 17,7 C 93 % 1011,1 hPa 0,0 l/m 0,0 km/h (0 Bft) SO 135 0 min 16,5 C 17,6 C 0,0 km/h (0 Bft)
22.07.2017 03:27 17,7 C 17,6 C 17,7 C 93 % 1011,2 hPa 0,0 l/m 0,0 km/h (0 Bft) SO 135 0 min 16,6 C 17,7 C 1,6 km/h (1 Bft)
22.07.2017 03:00 17,7 C 17,7 C 17,8 C 93 % 1011,1 hPa 0,0 l/m 0,0 km/h (0 Bft) SO 135 0 min 16,6 C 17,7 C 0,0 km/h (0 Bft)
22.07.2017 02:54 17,8 C 17,8 C 17,8 C 93 % 1011,2 hPa 0,0 l/m 0,0 km/h (0 Bft) SO 135 0 min 16,7 C 17,8 C 0,0 km/h (0 Bft)
22.07.2017 02:53 17,8 C 17,8 C 17,8 C 93 % 1011,2 hPa 0,0 l/m 0,1 km/h (0 Bft) SO 135 0 min 16,7 C 17,8 C 1,6 km/h (1 Bft)
22.07.2017 02:52 17,8 C 17,8 C 17,8 C 93 % 1011,3 hPa 0,0 l/m 0,0 km/h (0 Bft) SO 135 0 min 16,7 C 17,8 C 0,0 km/h (0 Bft)
22.07.2017 02:51 17,8 C 17,8 C 17,8 C 93 % 1011,3 hPa 0,0 l/m 0,0 km/h (0 Bft) SO 135 0 min 16,7 C 17,8 C 0,0 km/h (0 Bft)
22.07.2017 02:50 17,8 C 17,8 C 17,8 C 93 % 1011,2 hPa 0,0 l/m 0,0 km/h (0 Bft) SO 135 0 min 16,7 C 17,8 C 0,0 km/h (0 Bft)
22.07.2017 02:49 17,8 C 17,8 C 17,8 C 93 % 1011,2 hPa 0,0 l/m 0,0 km/h (0 Bft) SO 135 0 min 16,7 C 17,8 C 0,0 km/h (0 Bft)
22.07.2017 02:48 17,8 C 17,8 C 17,8 C 93 % 1011,2 hPa 0,0 l/m 0,0 km/h (0 Bft) SO 135 0 min 16,7 C 17,8 C 0,0 km/h (0 Bft)
22.07.2017 02:47 17,8 C 17,8 C 17,8 C 93 % 1011,2 hPa 0,0 l/m 0,0 km/h (0 Bft) SO 135 0 min 16,7 C 17,8 C 0,0 km/h (0 Bft)
22.07.2017 02:46 17,8 C 17,8 C 17,8 C 93 % 1011,2 hPa 0,0 l/m 0,0 km/h (0 Bft) SO 135 0 min 16,7 C 17,8 C 0,0 km/h (0 Bft)
22.07.2017 02:45 17,8 C 17,8 C 17,8 C 93 % 1011,2 hPa 0,0 l/m 0,0 km/h (0 Bft) SO 135 0 min 16,7 C 17,8 C 0,0 km/h (0 Bft)
22.07.2017 02:44 17,8 C 17,8 C 17,8 C 93 % 1011,2 hPa 0,0 l/m 0,0 km/h (0 Bft) SO 135 0 min 16,7 C 17,8 C 0,0 km/h (0 Bft)
22.07.2017 02:43 17,8 C 17,8 C 17,8 C 93 % 1011,2 hPa 0,0 l/m 0,0 km/h (0 Bft) SO 135 0 min 16,7 C 17,8 C 0,0 km/h (0 Bft)
22.07.2017 02:42 17,8 C 17,8 C 17,8 C 93 % 1011,2 hPa 0,0 l/m 0,0 km/h (0 Bft) SO 135 0 min 16,7 C 17,8 C 0,0 km/h (0 Bft)
22.07.2017 02:41 17,8 C 17,8 C 17,8 C 93 % 1011,2 hPa 0,0 l/m 0,1 km/h (0 Bft) SO 135 0 min 16,7 C 17,8 C 1,6 km/h (1 Bft)
22.07.2017 02:40 17,8 C 17,8 C 17,9 C 93 % 1011,2 hPa 0,0 l/m 0,3 km/h (0 Bft) SO 135 0 min 16,7 C 17,8 C 6,4 km/h (2 Bft)
22.07.2017 02:15 17,9 C 17,9 C 18,0 C 93 % 1011,5 hPa 0,0 l/m 1,5 km/h (1 Bft) S 180 0 min 16,8 C 17,9 C 8,0 km/h (2 Bft)
22.07.2017 02:07 18,0 C 18,0 C 18,0 C 93 % 1011,4 hPa 0,0 l/m 0,1 km/h (0 Bft) S 182 0 min 16,8 C 18,0 C 1,6 km/h (1 Bft)
22.07.2017 02:06 18,0 C 18,0 C 18,0 C 93 % 1011,4 hPa 0,0 l/m 0,0 km/h (0 Bft) S 188 0 min 16,8 C 18,0 C 0,0 km/h (0 Bft)
22.07.2017 02:05 18,0 C 18,0 C 18,0 C 93 % 1011,5 hPa 0,0 l/m 0,0 km/h (0 Bft) S 188 0 min 16,8 C 18,0 C 0,0 km/h (0 Bft)
22.07.2017 02:04 18,0 C 18,0 C 18,0 C 93 % 1011,5 hPa 0,0 l/m 0,0 km/h (0 Bft) S 188 0 min 16,8 C 18,0 C 0,0 km/h (0 Bft)
22.07.2017 02:03 18,0 C 18,0 C 18,0 C 93 % 1011,5 hPa 0,0 l/m 0,0 km/h (0 Bft) S 188 0 min 16,8 C 18,0 C 0,0 km/h (0 Bft)
22.07.2017 02:02 18,0 C 18,0 C 18,0 C 93 % 1011,5 hPa 0,0 l/m 0,0 km/h (0 Bft) S 188 0 min 16,8 C 18,0 C 0,0 km/h (0 Bft)
22.07.2017 02:01 18,0 C 18,0 C 18,0 C 93 % 1011,4 hPa 0,0 l/m 0,0 km/h (0 Bft) S 188 0 min 16,8 C 18,0 C 0,0 km/h (0 Bft)
22.07.2017 02:00 18,0 C 18,0 C 18,0 C 93 % 1011,4 hPa 0,0 l/m 0,0 km/h (0 Bft) S 188 0 min 16,8 C 18,0 C 0,0 km/h (0 Bft)
22.07.2017 01:59 18,0 C 18,0 C 18,0 C 93 % 1011,4 hPa 0,0 l/m 0,0 km/h (0 Bft) S 188 0 min 16,8 C 18,0 C 0,0 km/h (0 Bft)
22.07.2017 01:58 18,0 C 18,0 C 18,0 C 93 % 1011,4 hPa 0,0 l/m 0,0 km/h (0 Bft) S 188 0 min 16,8 C 18,0 C 0,0 km/h (0 Bft)
22.07.2017 01:57 18,0 C 18,0 C 18,0 C 93 % 1011,5 hPa 0,0 l/m 0,0 km/h (0 Bft) S 188 0 min 16,8 C 18,0 C 0,0 km/h (0 Bft)
22.07.2017 01:56 18,0 C 18,0 C 18,0 C 93 % 1011,5 hPa 0,0 l/m 0,0 km/h (0 Bft) S 188 0 min 16,8 C 18,0 C 0,0 km/h (0 Bft)
22.07.2017 01:55 18,0 C 18,0 C 18,0 C 93 % 1011,5 hPa 0,0 l/m 0,0 km/h (0 Bft) S 188 0 min 16,8 C 18,0 C 0,0 km/h (0 Bft)
22.07.2017 01:54 18,0 C 18,0 C 18,0 C 93 % 1011,5 hPa 0,0 l/m 0,0 km/h (0 Bft) S 188 0 min 16,8 C 18,0 C 0,0 km/h (0 Bft)
22.07.2017 01:53 18,0 C 18,0 C 18,1 C 93 % 1011,5 hPa 0,2 l/m 0,8 km/h (0 Bft) S 188 0 min 16,8 C 18,0 C 11,3 km/h (2 Bft)
22.07.2017 01:30 18,1 C 18,1 C 18,2 C 93 % 1011,2 hPa 0,0 l/m 0,0 km/h (0 Bft) S-SW 201 0 min 16,9 C 18,1 C 0,0 km/h (0 Bft)
22.07.2017 01:20 18,2 C 18,2 C 18,2 C 93 % 1011,2 hPa 0,0 l/m 0,0 km/h (0 Bft) S-SW 201 0 min 17,0 C 18,2 C 0,0 km/h (0 Bft)
22.07.2017 01:19 18,2 C 18,2 C 18,2 C 93 % 1011,2 hPa 0,0 l/m 0,0 km/h (0 Bft) S-SW 201 0 min 17,0 C 18,2 C 0,0 km/h (0 Bft)
22.07.2017 01:18 18,2 C 18,2 C 18,2 C 93 % 1011,2 hPa 0,0 l/m 0,2 km/h (0 Bft) S-SW 201 0 min 17,0 C 18,2 C 1,6 km/h (1 Bft)
22.07.2017 01:17 18,2 C 18,2 C 18,2 C 93 % 1011,3 hPa 0,0 l/m 0,1 km/h (0 Bft) S-SW 201 0 min 17,0 C 18,2 C 1,6 km/h (1 Bft)
22.07.2017 01:16 18,2 C 18,2 C 18,2 C 93 % 1011,3 hPa 0,0 l/m 0,7 km/h (0 Bft) S-SW 201 0 min 17,0 C 18,2 C 1,6 km/h (1 Bft)
22.07.2017 01:15 18,2 C 18,2 C 18,2 C 93 % 1011,3 hPa 0,0 l/m 0,2 km/h (0 Bft) S-SW 201 0 min 17,0 C 18,2 C 1,6 km/h (1 Bft)
22.07.2017 01:14 18,2 C 18,2 C 18,2 C 93 % 1011,3 hPa 0,0 l/m 0,1 km/h (0 Bft) S-SW 201 0 min 17,0 C 18,2 C 1,6 km/h (1 Bft)
22.07.2017 01:13 18,2 C 18,2 C 18,2 C 93 % 1011,3 hPa 0,0 l/m 0,0 km/h (0 Bft) S-SW 201 0 min 17,0 C 18,2 C 0,0 km/h (0 Bft)
22.07.2017 01:12 18,2 C 18,2 C 18,2 C 93 % 1011,3 hPa 0,0 l/m 1,7 km/h (1 Bft) S-SW 201 0 min 17,0 C 18,2 C 3,2 km/h (1 Bft)
22.07.2017 01:11 18,2 C 18,2 C 18,2 C 93 % 1011,3 hPa 0,0 l/m 0,1 km/h (0 Bft) O-SO 111 0 min 17,0 C 18,2 C 1,6 km/h (1 Bft)
22.07.2017 01:10 18,2 C 18,2 C 18,2 C 93 % 1011,3 hPa 0,0 l/m 0,1 km/h (0 Bft) O-SO 111 0 min 17,0 C 18,2 C 1,6 km/h (1 Bft)
22.07.2017 01:09 18,2 C 18,2 C 18,2 C 93 % 1011,3 hPa 0,0 l/m 0,1 km/h (0 Bft) O-SO 111 0 min 17,0 C 18,2 C 1,6 km/h (1 Bft)
22.07.2017 01:08 18,2 C 18,2 C 18,2 C 93 % 1011,3 hPa 0,0 l/m 0,0 km/h (0 Bft) O-SO 111 0 min 17,0 C 18,2 C 0,0 km/h (0 Bft)
22.07.2017 01:07 18,2 C 18,2 C 18,2 C 92 % 1011,2 hPa 0,0 l/m 0,0 km/h (0 Bft) O-SO 111 0 min 16,9 C 18,2 C 0,0 km/h (0 Bft)
22.07.2017 01:06 18,2 C 18,2 C 18,2 C 92 % 1011,3 hPa 0,0 l/m 0,0 km/h (0 Bft) O-SO 111 0 min 16,9 C 18,2 C 1,6 km/h (1 Bft)
22.07.2017 00:45 18,2 C 18,2 C 18,3 C 92 % 1011,3 hPa 0,0 l/m 0,0 km/h (0 Bft) O-SO 111 0 min 16,9 C 18,2 C 1,6 km/h (1 Bft)
22.07.2017 00:33 18,3 C 18,3 C 18,3 C 92 % 1011,2 hPa 0,0 l/m 0,0 km/h (0 Bft) O-SO 111 0 min 17,0 C 18,3 C 0,0 km/h (0 Bft)
22.07.2017 00:32 18,3 C 18,3 C 18,3 C 92 % 1011,2 hPa 0,0 l/m 0,0 km/h (0 Bft) O-SO 111 0 min 17,0 C 18,3 C 0,0 km/h (0 Bft)
22.07.2017 00:31 18,3 C 18,3 C 18,3 C 92 % 1011,2 hPa 0,0 l/m 0,0 km/h (0 Bft) O-SO 111 0 min 17,0 C 18,3 C 0,0 km/h (0 Bft)
22.07.2017 00:30 18,3 C 18,3 C 18,3 C 92 % 1011,2 hPa 0,0 l/m 0,1 km/h (0 Bft) O-SO 111 0 min 17,0 C 18,3 C 1,6 km/h (1 Bft)
22.07.2017 00:29 18,3 C 18,3 C 18,3 C 92 % 1011,3 hPa 0,0 l/m 0,0 km/h (0 Bft) O-SO 111 0 min 17,0 C 18,3 C 0,0 km/h (0 Bft)
22.07.2017 00:28 18,3 C 18,3 C 18,3 C 92 % 1011,2 hPa 0,0 l/m 0,0 km/h (0 Bft) O-SO 111 0 min 17,0 C 18,3 C 0,0 km/h (0 Bft)
22.07.2017 00:27 18,3 C 18,3 C 18,3 C 92 % 1011,3 hPa 0,0 l/m 0,0 km/h (0 Bft) O-SO 111 0 min 17,0 C 18,3 C 0,0 km/h (0 Bft)
22.07.2017 00:26 18,3 C 18,3 C 18,3 C 92 % 1011,3 hPa 0,0 l/m 0,0 km/h (0 Bft) O-SO 111 0 min 17,0 C 18,3 C 0,0 km/h (0 Bft)
22.07.2017 00:25 18,3 C 18,3 C 18,3 C 92 % 1011,3 hPa 0,0 l/m 0,0 km/h (0 Bft) O-SO 111 0 min 17,0 C 18,3 C 0,0 km/h (0 Bft)
22.07.2017 00:24 18,3 C 18,3 C 18,3 C 92 % 1011,2 hPa 0,0 l/m 0,0 km/h (0 Bft) O-SO 111 0 min 17,0 C 18,3 C 0,0 km/h (0 Bft)
22.07.2017 00:23 18,3 C 18,3 C 18,3 C 92 % 1011,3 hPa 0,0 l/m 0,0 km/h (0 Bft) O-SO 111 0 min 17,0 C 18,3 C 0,0 km/h (0 Bft)
22.07.2017 00:22 18,3 C 18,3 C 18,3 C 92 % 1011,3 hPa 0,0 l/m 0,0 km/h (0 Bft) O-SO 111 0 min 17,0 C 18,3 C 0,0 km/h (0 Bft)
22.07.2017 00:21 18,3 C 18,3 C 18,3 C 92 % 1011,2 hPa 0,0 l/m 0,0 km/h (0 Bft) O-SO 111 0 min 17,0 C 18,3 C 0,0 km/h (0 Bft)
22.07.2017 00:20 18,3 C 18,3 C 18,4 C 92 % 1011,2 hPa 0,0 l/m 0,0 km/h (0 Bft) O-SO 111 0 min 17,0 C 18,3 C 0,0 km/h (0 Bft)
22.07.2017 00:19 18,4 C 18,4 C 18,5 C 92 % 1011,3 hPa 0,0 l/m 0,4 km/h (0 Bft) O-SO 111 0 min 17,1 C 18,4 C 6,4 km/h (2 Bft)
22.07.2017 00:00 18,5 C 18,5 C 18,7 C 91 % 1011,1 hPa 0,0 l/m 0,0 km/h (0 Bft) S-SO 156 0 min 17,0 C 18,5 C 1,6 km/h (1 Bft)
21.07.2017 23:44 18,7 C 18,7 C 18,7 C 90 % 1011,2 hPa 0,0 l/m 0,0 km/h (0 Bft) S-SO 156 0 min 17,0 C 18,7 C 0,0 km/h (0 Bft)
21.07.2017 23:43 18,7 C 18,7 C 18,7 C 90 % 1011,2 hPa 0,0 l/m 0,0 km/h (0 Bft) S-SO 156 0 min 17,0 C 18,7 C 0,0 km/h (0 Bft)
21.07.2017 23:42 18,7 C 18,7 C 18,7 C 90 % 1011,2 hPa 0,0 l/m 0,0 km/h (0 Bft) S-SO 156 0 min 17,0 C 18,7 C 0,0 km/h (0 Bft)
21.07.2017 23:41 18,7 C 18,7 C 18,7 C 90 % 1011,1 hPa 0,0 l/m 0,6 km/h (0 Bft) S-SO 156 0 min 17,0 C 18,7 C 1,6 km/h (1 Bft)
21.07.2017 23:40 18,7 C 18,7 C 18,7 C 90 % 1011,1 hPa 0,0 l/m 0,0 km/h (0 Bft) S-SO 156 0 min 17,0 C 18,7 C 0,0 km/h (0 Bft)
21.07.2017 23:39 18,7 C 18,7 C 18,7 C 90 % 1011,1 hPa 0,0 l/m 0,0 km/h (0 Bft) S-SO 156 0 min 17,0 C 18,7 C 0,0 km/h (0 Bft)
21.07.2017 23:38 18,7 C 18,7 C 18,7 C 90 % 1011,0 hPa 0,0 l/m 0,0 km/h (0 Bft) S-SO 156 0 min 17,0 C 18,7 C 0,0 km/h (0 Bft)
21.07.2017 23:37 18,7 C 18,7 C 18,8 C 90 % 1010,9 hPa 0,0 l/m 0,0 km/h (0 Bft) S-SO 156 0 min 17,0 C 18,7 C 0,0 km/h (0 Bft)
21.07.2017 23:36 18,8 C 18,7 C 18,8 C 90 % 1010,9 hPa 0,0 l/m 0,0 km/h (0 Bft) S-SO 156 0 min 17,1 C 18,8 C 0,0 km/h (0 Bft)
21.07.2017 23:35 18,8 C 18,8 C 18,8 C 89 % 1010,8 hPa 0,0 l/m 0,0 km/h (0 Bft) S-SO 156 0 min 16,9 C 18,8 C 0,0 km/h (0 Bft)
21.07.2017 23:34 18,8 C 18,8 C 18,8 C 89 % 1010,8 hPa 0,0 l/m 0,0 km/h (0 Bft) S-SO 156 0 min 16,9 C 18,8 C 0,0 km/h (0 Bft)
21.07.2017 23:33 18,8 C 18,8 C 18,8 C 89 % 1010,7 hPa 0,0 l/m 0,0 km/h (0 Bft) S-SO 156 0 min 16,9 C 18,8 C 0,0 km/h (0 Bft)
21.07.2017 23:32 18,8 C 18,8 C 18,8 C 89 % 1010,7 hPa 0,0 l/m 0,0 km/h (0 Bft) S-SO 156 0 min 16,9 C 18,8 C 0,0 km/h (0 Bft)
21.07.2017 23:31 18,8 C 18,8 C 18,8 C 89 % 1010,7 hPa 0,0 l/m 0,0 km/h (0 Bft) S-SO 156 0 min 16,9 C 18,8 C 0,0 km/h (0 Bft)
21.07.2017 23:30 18,8 C 18,8 C 19,0 C 89 % 1010,7 hPa 1,0 l/m 0,0 km/h (0 Bft) S-SO 156 0 min 16,9 C 18,8 C 1,6 km/h (1 Bft)
21.07.2017 23:15 19,0 C 19,0 C 19,3 C 88 % 1010,8 hPa 0,6 l/m 0,3 km/h (0 Bft) S-SO 156 0 min 17,0 C 19,0 C 8,0 km/h (2 Bft)
21.07.2017 23:00 19,3 C 19,3 C 20,4 C 86 % 1011,1 hPa 0,8 l/m 5,7 km/h (1 Bft) S-SO 157 0 min 16,9 C 19,3 C 19,3 km/h (3 Bft)
21.07.2017 22:45 20,4 C 20,4 C 21,4 C 83 % 1011,5 hPa 4,6 l/m 8,5 km/h (2 Bft) O 98 0 min 17,4 C 19,6 C 22,5 km/h (4 Bft)
21.07.2017 22:30 21,4 C 21,4 C 22,2 C 75 % 1010,6 hPa 0,0 l/m 9,1 km/h (2 Bft) S-SO 161 0 min 16,8 C 20,5 C 27,4 km/h (4 Bft)
21.07.2017 22:15 22,2 C 22,2 C 22,5 C 74 % 1009,5 hPa 0,0 l/m 0,1 km/h (0 Bft) SO 141 0 min 17,3 C 22,2 C 3,2 km/h (1 Bft)
21.07.2017 22:00 22,5 C 22,5 C 22,8 C 72 % 1009,3 hPa 0,0 l/m 0,0 km/h (0 Bft) SO 141 0 min 17,2 C 22,5 C 0,0 km/h (0 Bft)
21.07.2017 21:45 22,8 C 22,8 C 23,2 C 71 % 1009,3 hPa 0,0 l/m 0,0 km/h (0 Bft) SO 141 0 min 17,3 C 22,8 C 0,0 km/h (0 Bft)
21.07.2017 21:30 23,2 C 23,2 C 23,8 C 71 % 1009,3 hPa 0,0 l/m 0,0 km/h (0 Bft) SO 141 0 min 17,6 C 23,2 C 0,0 km/h (0 Bft)
21.07.2017 21:15 23,8 C 23,8 C 24,4 C 68 % 1009,2 hPa 0,0 l/m 0,0 km/h (0 Bft) SO 141 0 min 17,5 C 23,8 C 0,0 km/h (0 Bft)
21.07.2017 21:00 24,4 C 24,4 C 25,2 C 67 % 1009,1 hPa 0,0 l/m 0,0 km/h (0 Bft) SO 141 0 min 17,9 C 24,4 C 0,0 km/h (0 Bft)
21.07.2017 20:45 25,2 C 25,2 C 26,1 C 64 % 1009,1 hPa 0,0 l/m 0,0 km/h (0 Bft) SO 141 0 min 17,9 C 25,2 C 1,6 km/h (1 Bft)
21.07.2017 20:30 26,1 C 26,1 C 26,9 C 63 % 1008,9 hPa 0,0 l/m 0,0 km/h (0 Bft) SO 141 0 min 18,5 C 26,1 C 0,0 km/h (0 Bft)
21.07.2017 20:15 26,9 C 26,9 C 27,5 C 60 % 1009,1 hPa 0,0 l/m 0,0 km/h (0 Bft) SO 141 0 min 18,5 C 26,9 C 0,0 km/h (0 Bft)
21.07.2017 20:00 27,5 C 27,5 C 28,0 C 54 % 1009,2 hPa 0,0 l/m 0,0 km/h (0 Bft) SO 141 0 min 17,3 C 27,5 C 1,6 km/h (1 Bft)
21.07.2017 19:45 28,0 C 28,0 C 28,2 C 54 % 1009,4 hPa 0,0 l/m 0,5 km/h (0 Bft) SO 140 0 min 17,8 C 28,0 C 4,8 km/h (1 Bft)
21.07.2017 19:30 28,2 C 28,2 C 28,4 C 51 % 1009,5 hPa 0,0 l/m 0,0 km/h (0 Bft) SO 140 0 min 17,1 C 28,2 C 1,6 km/h (1 Bft)
21.07.2017 19:15 28,4 C 28,4 C 28,8 C 51 % 1009,5 hPa 0,0 l/m 0,0 km/h (0 Bft) SO 140 0 min 17,3 C 28,4 C 1,6 km/h (1 Bft)
21.07.2017 19:00 28,8 C 28,7 C 28,9 C 47 % 1009,5 hPa 0,0 l/m 0,5 km/h (0 Bft) SO 140 0 min 16,3 C 28,8 C 6,4 km/h (2 Bft)
21.07.2017 18:45 28,7 C 28,4 C 28,7 C 49 % 1009,3 hPa 0,0 l/m 0,2 km/h (0 Bft) O-NO 72 0 min 16,9 C 28,7 C 4,8 km/h (1 Bft)
21.07.2017 18:30 28,4 C 28,3 C 28,4 C 46 % 1009,3 hPa 0,0 l/m 0,3 km/h (0 Bft) O 101 0 min 15,6 C 28,4 C 6,4 km/h (2 Bft)
21.07.2017 18:15 28,3 C 27,7 C 28,3 C 47 % 1009,4 hPa 0,0 l/m 0,2 km/h (0 Bft) S 175 0 min 15,9 C 28,3 C 4,8 km/h (1 Bft)
21.07.2017 18:00 27,7 C 27,1 C 27,7 C 50 % 1009,4 hPa 0,0 l/m 0,2 km/h (0 Bft) S 175 0 min 16,3 C 27,7 C 4,8 km/h (1 Bft)
21.07.2017 17:45 27,1 C 26,6 C 27,1 C 53 % 1009,7 hPa 0,0 l/m 0,0 km/h (0 Bft) S 174 0 min 16,7 C 27,1 C 1,6 km/h (1 Bft)
21.07.2017 17:30 26,6 C 26,4 C 26,6 C 52 % 1009,9 hPa 0,0 l/m 0,0 km/h (0 Bft) S 174 0 min 15,9 C 26,6 C 1,6 km/h (1 Bft)
21.07.2017 17:15 26,4 C 26,2 C 26,4 C 54 % 1010,1 hPa 0,0 l/m 0,0 km/h (0 Bft) S 174 0 min 16,3 C 26,4 C 1,6 km/h (1 Bft)
21.07.2017 17:00 26,4 C 26,4 C 26,6 C 50 % 1010,3 hPa 0,0 l/m 0,0 km/h (0 Bft) S 174 0 min 15,1 C 26,4 C 1,6 km/h (1 Bft)
21.07.2017 16:45 26,6 C 25,8 C 26,6 C 50 % 1010,4 hPa 0,0 l/m 0,6 km/h (0 Bft) S 174 0 min 15,3 C 26,6 C 8,0 km/h (2 Bft)
21.07.2017 16:30 25,8 C 25,6 C 25,8 C 53 % 1010,5 hPa 0,0 l/m 0,1 km/h (0 Bft) S-SW 193 0 min 15,5 C 25,8 C 4,8 km/h (1 Bft)
21.07.2017 16:18 25,6 C 25,6 C 25,8 C 51 % 1010,5 hPa 0,0 l/m 0,0 km/h (0 Bft) S-SW 193 0 min 14,7 C 25,6 C 1,6 km/h (1 Bft)
21.07.2017 16:00 25,7 C 25,7 C 25,8 C 52 % 1010,9 hPa 0,0 l/m 0,1 km/h (0 Bft) S-SW 206 0 min 15,1 C 25,7 C 3,2 km/h (1 Bft)
21.07.2017 15:45 25,8 C 25,8 C 26,2 C 50 % 1011,0 hPa 0,0 l/m 1,6 km/h (1 Bft) S 170 0 min 14,6 C 25,8 C 8,0 km/h (2 Bft)
21.07.2017 15:30 26,2 C 26,2 C 26,4 C 50 % 1011,2 hPa 0,0 l/m 3,8 km/h (1 Bft) SO 143 0 min 14,9 C 26,2 C 11,3 km/h (2 Bft)
21.07.2017 15:15 26,3 C 26,3 C 27,1 C 52 % 1011,4 hPa 0,0 l/m 2,9 km/h (1 Bft) W-SW 237 0 min 15,6 C 26,3 C 16,1 km/h (3 Bft)
21.07.2017 15:00 27,1 C 26,5 C 27,1 C 49 % 1011,6 hPa 0,0 l/m 4,5 km/h (1 Bft) S 185 0 min 15,4 C 27,1 C 16,1 km/h (3 Bft)
21.07.2017 14:47 26,5 C 26,2 C 26,5 C 48 % 1011,6 hPa 0,0 l/m 4,0 km/h (1 Bft) S-SW 205 0 min 14,6 C 26,5 C 14,5 km/h (3 Bft)
21.07.2017 14:30 26,2 C 25,9 C 26,4 C 49 % 1011,8 hPa 0,0 l/m 2,4 km/h (1 Bft) SW 236 0 min 14,6 C 26,2 C 11,3 km/h (2 Bft)
21.07.2017 14:16 25,9 C 25,1 C 25,9 C 49 % 1011,8 hPa 0,0 l/m 1,7 km/h (1 Bft) S 172 0 min 14,4 C 25,9 C 11,3 km/h (2 Bft)
21.07.2017 14:00 25,1 C 24,9 C 25,2 C 50 % 1012,0 hPa 0,0 l/m 2,9 km/h (1 Bft) O-SO 115 0 min 13,9 C 25,1 C 12,9 km/h (3 Bft)
21.07.2017 13:45 25,0 C 24,9 C 25,3 C 50 % 1012,1 hPa 0,0 l/m 3,0 km/h (1 Bft) S-SO 165 0 min 13,8 C 25,0 C 12,9 km/h (3 Bft)
21.07.2017 13:30 25,3 C 25,3 C 25,7 C 51 % 1012,2 hPa 0,0 l/m 2,8 km/h (1 Bft) O-SO 117 0 min 14,4 C 25,3 C 11,3 km/h (2 Bft)
21.07.2017 13:16 25,3 C 24,3 C 25,3 C 51 % 1012,3 hPa 0,0 l/m 1,9 km/h (1 Bft) O-SO 107 0 min 14,4 C 25,3 C 12,9 km/h (3 Bft)
21.07.2017 13:00 24,7 C 24,3 C 25,0 C 51 % 1012,3 hPa 0,0 l/m 1,9 km/h (1 Bft) O 88 0 min 13,9 C 24,7 C 14,5 km/h (3 Bft)
_ Min-Zeit 07:00 07:00 06:03 18:30 20:30 - 16:18 - - - 13:45 06:30 20:15
Minimum _ 16,6 C 16,6 C 16,9 C 46 % 1008,9 hPa - 0,0 km/h (0 Bft) - - - 13,8 C 16,7 C 0,0 km/h (0 Bft)
_ Max-Zeit 19:00 19:00 19:00 07:00 12:00 22:45 22:30 - - 13:00 11:00 19:00 22:30
Maximum _ 28,9 C 28,7 C 28,9 C 95 % 1012,9 hPa 4,6 l/m 9,1 km/h
S-SO (2 Bft)
- - 0 min 19,4 C 28,8 C 27,4 km/h
S-SW (4 Bft)
Durchschnitt _ 22,1 C 21,9 C 22,3 C 73 % 1011,2 hPa #7,2 l/m 1,0 km/h (0 Bft) S - #0 min. 16,5 C 22,1 C 6,2 km/h (2 Bft)